Time;durP1;ratioP1;P1;durP2;ratioP2;P2;SDS_P1;SDS_P2;PMS_P1;PMS_P2;Temp;Humidity;BMP_temperature;BMP_pressure;BME280_temperature;BME280_humidity;BME280_pressure;Samples;Min_cycle;Max_cycle;Signal;HPM_P1;HPM_P2
2023/07/06 00:02:52;;;;;;;3.47;2.40;;;24.40;92.20;;;;;;6216636;28;84212;-69
2023/07/06 00:05:54;;;;;;;4.90;2.63;;;24.40;92.20;;;;;;6216767;28;85112;-69
2023/07/06 00:08:58;;;;;;;4.03;2.42;;;24.40;92.20;;;;;;6227641;28;84205;-69
2023/07/06 00:12:00;;;;;;;4.53;2.28;;;24.40;92.20;;;;;;6223975;28;84242;-69
2023/07/06 00:15:03;;;;;;;4.03;2.40;;;24.40;92.20;;;;;;6231124;28;84182;-69
2023/07/06 00:18:06;;;;;;;5.18;2.30;;;24.40;92.30;;;;;;6231569;28;83746;-69
2023/07/06 00:21:08;;;;;;;3.75;2.35;;;24.40;92.30;;;;;;6225104;28;84303;-70
2023/07/06 00:24:11;;;;;;;3.17;2.28;;;24.40;92.20;;;;;;6210200;28;84149;-69
2023/07/06 00:27:15;;;;;;;4.07;2.40;;;24.40;92.30;;;;;;6221252;28;83392;-69
2023/07/06 00:30:18;;;;;;;4.45;2.83;;;24.40;92.60;;;;;;6212059;28;84237;-69
2023/07/06 00:33:23;;;;;;;2.97;2.50;;;24.40;92.10;;;;;;6214439;28;84014;-70
2023/07/06 00:36:28;;;;;;;3.90;2.53;;;24.40;92.10;;;;;;6218724;28;85076;-69
2023/07/06 00:39:32;;;;;;;4.93;2.88;;;24.40;92.10;;;;;;6208932;28;84162;-69
2023/07/06 00:42:36;;;;;;;4.97;2.50;;;24.40;92.10;;;;;;6216762;28;83978;-70
2023/07/06 00:45:39;;;;;;;4.70;2.60;;;24.40;92.20;;;;;;6222897;28;85646;-69
2023/07/06 00:48:45;;;;;;;5.10;2.63;;;24.30;92.60;;;;;;6219913;28;84061;-69
2023/07/06 00:51:47;;;;;;;3.75;2.38;;;24.40;92.40;;;;;;6223941;28;84028;-69
2023/07/06 00:54:51;;;;;;;4.15;2.30;;;24.40;92.30;;;;;;6222852;28;84324;-69
2023/07/06 00:57:56;;;;;;;3.80;2.50;;;24.40;92.40;;;;;;6227433;28;83238;-69
2023/07/06 01:01:02;;;;;;;3.53;2.20;;;24.30;92.30;;;;;;6226097;28;84393;-69
2023/07/06 01:04:08;;;;;;;4.50;2.50;;;24.40;92.40;;;;;;6232057;28;82934;-69
2023/07/06 01:07:16;;;;;;;4.55;2.78;;;24.30;92.40;;;;;;6230535;28;85025;-69
2023/07/06 01:10:19;;;;;;;3.72;2.50;;;24.40;92.50;;;;;;6228882;28;84014;-69
2023/07/06 01:13:24;;;;;;;2.80;2.40;;;24.30;92.50;;;;;;6229658;28;83208;-69
2023/07/06 01:16:34;;;;;;;3.70;2.40;;;24.30;92.50;;;;;;6218527;28;84021;-69
2023/07/06 01:20:14;;;;;;;3.58;2.40;;;24.30;92.40;;;;;;6236189;28;82964;-69
2023/07/06 01:23:36;;;;;;;3.53;2.28;;;24.30;92.30;;;;;;6229216;28;85151;-69
2023/07/06 01:26:54;;;;;;;2.92;2.22;;;24.30;92.20;;;;;;6221685;28;84063;-69
2023/07/06 01:30:34;;;;;;;3.78;2.20;;;24.30;92.20;;;;;;6226133;28;82202;-69
2023/07/06 01:33:47;;;;;;;3.95;2.35;;;24.30;92.20;;;;;;6225280;28;84080;-69
2023/07/06 01:36:56;;;;;;;3.67;2.50;;;24.30;92.30;;;;;;6214386;28;84007;-69
2023/07/06 01:39:59;;;;;;;4.65;2.65;;;24.30;92.30;;;;;;6221854;28;83941;-70
2023/07/06 01:43:01;;;;;;;4.68;2.40;;;24.30;92.40;;;;;;6233053;28;83973;-69
2023/07/06 01:46:03;;;;;;;4.28;2.45;;;24.40;92.40;;;;;;6223098;28;83026;-69
2023/07/06 01:49:06;;;;;;;3.38;2.25;;;24.30;92.40;;;;;;6222441;28;85936;-69
2023/07/06 01:52:16;;;;;;;2.40;2.03;;;24.30;92.40;;;;;;6232410;28;83970;-69
2023/07/06 01:55:24;;;;;;;3.78;2.20;;;24.30;92.40;;;;;;6229513;28;83930;-70
2023/07/06 01:58:34;;;;;;;2.33;2.08;;;24.30;92.50;;;;;;6227663;28;82737;-70
2023/07/06 02:01:41;;;;;;;3.45;2.17;;;24.30;92.50;;;;;;6212564;28;83321;-69
2023/07/06 02:04:44;;;;;;;2.95;2.13;;;24.30;92.50;;;;;;6229032;28;83045;-70
2023/07/06 02:07:49;;;;;;;4.05;2.30;;;24.30;92.50;;;;;;6226663;28;82893;-70
2023/07/06 02:10:52;;;;;;;3.42;2.08;;;24.30;92.30;;;;;;6233750;28;85297;-69
2023/07/06 02:13:54;;;;;;;5.18;2.30;;;24.30;92.30;;;;;;6233073;28;84082;-70
2023/07/06 02:16:56;;;;;;;2.38;2.17;;;24.30;92.30;;;;;;6222056;28;84066;-69
2023/07/06 02:20:00;;;;;;;4.35;2.17;;;24.30;92.20;;;;;;6233200;28;84128;-70
2023/07/06 02:23:02;;;;;;;7.05;3.58;;;24.30;92.30;;;;;;6231982;28;84057;-70
2023/07/06 02:26:04;;;;;;;3.65;2.22;;;24.30;92.30;;;;;;6220904;28;83218;-70
2023/07/06 02:29:06;;;;;;;3.05;2.35;;;24.30;92.40;;;;;;6232487;28;84040;-70
2023/07/06 02:32:09;;;;;;;4.35;2.30;;;24.30;92.40;;;;;;6217163;28;82188;-69
2023/07/06 02:35:13;;;;;;;3.30;2.20;;;24.30;92.40;;;;;;6232721;28;84100;-70
2023/07/06 02:38:16;;;;;;;3.05;2.22;;;24.30;92.40;;;;;;6221707;28;83986;-69
2023/07/06 02:41:19;;;;;;;4.85;2.40;;;24.30;92.40;;;;;;6225853;28;84196;-69
2023/07/06 02:44:21;;;;;;;4.60;2.60;;;24.30;92.40;;;;;;6227499;28;84413;-70
2023/07/06 02:47:23;;;;;;;3.67;2.20;;;24.30;92.50;;;;;;6224329;28;84134;-70
2023/07/06 02:50:27;;;;;;;4.18;2.05;;;24.30;92.50;;;;;;6216420;28;84084;-70
2023/07/06 02:53:30;;;;;;;3.95;2.25;;;24.30;92.50;;;;;;6224612;28;83028;-70
2023/07/06 02:56:32;;;;;;;3.80;2.17;;;24.30;92.40;;;;;;6215531;28;84090;-70
2023/07/06 02:59:34;;;;;;;5.32;2.50;;;24.30;92.30;;;;;;6224808;28;83735;-69
2023/07/06 03:02:36;;;;;;;4.50;2.28;;;24.30;92.20;;;;;;6233405;28;83652;-69
2023/07/06 03:05:39;;;;;;;3.10;1.88;;;24.30;92.20;;;;;;6219623;28;84233;-69
2023/07/06 03:08:41;;;;;;;5.32;2.25;;;24.30;92.20;;;;;;6219316;28;83965;-70
2023/07/06 03:11:44;;;;;;;3.35;2.00;;;24.30;92.20;;;;;;6221157;28;85050;-70
2023/07/06 03:14:47;;;;;;;4.43;2.20;;;24.30;92.20;;;;;;6229229;28;83103;-69
2023/07/06 03:17:50;;;;;;;3.35;2.10;;;24.30;92.20;;;;;;6222451;28;83960;-69
2023/07/06 03:20:55;;;;;;;4.70;2.25;;;24.30;92.20;;;;;;6222031;28;84395;-70
2023/07/06 03:23:57;;;;;;;3.72;1.88;;;24.20;92.20;;;;;;6222981;28;83119;-70
2023/07/06 03:27:01;;;;;;;4.00;2.42;;;24.30;92.20;;;;;;6233328;28;83930;-69
2023/07/06 03:30:04;;;;;;;2.35;2.00;;;24.20;92.20;;;;;;6229958;28;84249;-69
2023/07/06 03:33:06;;;;;;;3.30;2.00;;;24.30;92.20;;;;;;6215156;28;84091;-69
2023/07/06 03:36:11;;;;;;;3.47;2.00;;;24.20;92.20;;;;;;6229954;28;84049;-70
2023/07/06 03:39:13;;;;;;;3.38;2.25;;;24.30;92.20;;;;;;6232435;28;83979;-69
2023/07/06 03:42:17;;;;;;;2.55;2.05;;;24.20;92.20;;;;;;6227751;28;84976;-69
2023/07/06 03:45:19;;;;;;;3.53;1.65;;;24.20;92.10;;;;;;6214947;28;84381;-70
2023/07/06 03:48:21;;;;;;;4.18;2.20;;;24.30;92.00;;;;;;6222576;28;84019;-70
2023/07/06 03:51:25;;;;;;;5.70;2.15;;;24.20;92.40;;;;;;6231597;28;83948;-69
2023/07/06 03:54:27;;;;;;;3.28;1.92;;;24.20;92.00;;;;;;6225038;28;84805;-69
2023/07/06 03:57:31;;;;;;;5.72;2.47;;;24.20;91.90;;;;;;6210597;28;82953;-69
2023/07/06 04:00:34;;;;;;;2.85;1.95;;;24.20;92.00;;;;;;6220477;28;83980;-69
2023/07/06 04:03:36;;;;;;;3.15;2.10;;;24.20;92.00;;;;;;6209248;28;82204;-70
2023/07/06 04:06:41;;;;;;;4.75;2.00;;;24.20;92.00;;;;;;6212836;28;84096;-69
2023/07/06 04:09:44;;;;;;;3.88;1.98;;;24.20;92.00;;;;;;6225740;28;84562;-69
2023/07/06 04:12:46;;;;;;;5.38;2.30;;;24.20;92.00;;;;;;6228871;28;84931;-69
2023/07/06 04:15:52;;;;;;;4.47;1.98;;;24.20;92.00;;;;;;6206459;28;85587;-69
2023/07/06 04:18:54;;;;;;;3.30;2.03;;;24.20;92.00;;;;;;6230671;28;83316;-69
2023/07/06 04:21:57;;;;;;;3.13;2.00;;;24.20;92.20;;;;;;6220799;28;83215;-70
2023/07/06 04:24:59;;;;;;;2.25;1.67;;;24.20;91.90;;;;;;6235657;28;83951;-69
2023/07/06 04:28:05;;;;;;;2.67;1.80;;;24.20;91.90;;;;;;6223623;28;84020;-70
2023/07/06 04:31:07;;;;;;;2.40;1.77;;;24.20;91.90;;;;;;6231272;28;84748;-70
2023/07/06 04:34:09;;;;;;;4.53;2.13;;;24.20;91.90;;;;;;6231409;28;83620;-70
2023/07/06 04:37:12;;;;;;;3.67;2.10;;;24.20;91.80;;;;;;6222048;28;84045;-69
2023/07/06 04:40:18;;;;;;;3.28;1.80;;;24.20;91.80;;;;;;6223791;28;84222;-70
2023/07/06 04:43:20;;;;;;;3.25;1.80;;;24.20;91.80;;;;;;6220828;28;84986;-69
2023/07/06 04:46:22;;;;;;;3.55;1.90;;;24.20;92.10;;;;;;6223562;28;84078;-69
2023/07/06 04:49:24;;;;;;;6.38;2.50;;;24.20;91.80;;;;;;6235280;28;84344;-70
2023/07/06 04:52:28;;;;;;;2.60;1.98;;;24.20;91.80;;;;;;6236354;28;83971;-70
2023/07/06 04:55:31;;;;;;;2.30;1.67;;;24.20;91.80;;;;;;6229742;28;84015;-70
2023/07/06 04:58:34;;;;;;;5.68;2.78;;;24.20;91.80;;;;;;6228038;28;84464;-69
2023/07/06 05:01:36;;;;;;;7.10;2.60;;;24.20;92.00;;;;;;6216279;28;84105;-70
2023/07/06 05:04:40;;;;;;;5.65;2.40;;;24.20;93.30;;;;;;6224569;28;83349;-70
2023/07/06 05:07:45;;;;;;;7.75;2.30;;;24.30;94.30;;;;;;6222352;28;84045;-69
2023/07/06 05:10:51;;;;;;;6.10;2.28;;;24.30;93.80;;;;;;6227470;28;84020;-69
2023/07/06 05:13:53;;;;;;;6.78;2.17;;;24.30;93.40;;;;;;6220557;28;85013;-69
2023/07/06 05:16:55;;;;;;;8.00;2.40;;;24.30;93.40;;;;;;6219092;28;83458;-69
2023/07/06 05:19:58;;;;;;;6.55;2.55;;;24.30;93.40;;;;;;6228361;28;85104;-69
2023/07/06 05:23:03;;;;;;;9.23;2.30;;;24.30;93.30;;;;;;6220285;28;82974;-70
2023/07/06 05:26:05;;;;;;;5.93;2.30;;;24.30;93.50;;;;;;6231416;28;84370;-70
2023/07/06 05:29:07;;;;;;;3.63;2.22;;;24.30;93.70;;;;;;6225704;28;84173;-68
2023/07/06 05:32:10;;;;;;;5.00;2.45;;;24.30;93.80;;;;;;6215435;28;84046;-69
2023/07/06 05:35:13;;;;;;;4.95;1.92;;;24.30;94.30;;;;;;6221336;28;84029;-71
2023/07/06 05:38:16;;;;;;;4.68;2.70;;;24.30;95.00;;;;;;6231241;28;84018;-71
2023/07/06 05:41:18;;;;;;;6.90;2.15;;;24.30;94.90;;;;;;6221642;28;84349;-71
2023/07/06 05:44:20;;;;;;;9.25;3.30;;;24.30;95.70;;;;;;6220243;28;84337;-71
2023/07/06 05:47:22;;;;;;;5.30;3.08;;;24.30;95.70;;;;;;6234558;28;84135;-71
2023/07/06 05:50:24;;;;;;;10.07;3.72;;;24.30;95.70;;;;;;6224635;28;82947;-71
2023/07/06 05:53:28;;;;;;;15.98;4.68;;;24.30;96.00;;;;;;6223082;28;83961;-71
2023/07/06 05:56:31;;;;;;;17.60;7.00;;;24.30;96.50;;;;;;6218902;28;83893;-71
2023/07/06 05:59:33;;;;;;;14.90;5.50;;;24.30;97.20;;;;;;6222260;28;84102;-71
2023/07/06 06:02:35;;;;;;;10.88;5.05;;;24.20;97.30;;;;;;6223905;28;84045;-71
2023/07/06 06:05:37;;;;;;;9.77;4.03;;;24.30;97.30;;;;;;6231208;28;82097;-71
2023/07/06 06:08:40;;;;;;;5.63;3.30;;;24.30;97.20;;;;;;6226782;28;84028;-71
2023/07/06 06:11:42;;;;;;;7.40;3.10;;;24.30;96.80;;;;;;6221414;28;83733;-70
2023/07/06 06:14:45;;;;;;;10.38;3.85;;;24.30;96.60;;;;;;6221050;28;84305;-71
2023/07/06 06:17:48;;;;;;;7.90;3.53;;;24.30;96.40;;;;;;6217824;28;83999;-71
2023/07/06 06:20:51;;;;;;;10.52;4.90;;;24.30;96.20;;;;;;6228763;28;84067;-71
2023/07/06 06:23:57;;;;;;;14.70;5.72;;;24.30;96.40;;;;;;6215967;28;84013;-71
2023/07/06 06:27:00;;;;;;;20.75;8.45;;;24.30;97.20;;;;;;6232594;28;84147;-71
2023/07/06 06:30:02;;;;;;;20.85;8.02;;;24.30;97.50;;;;;;6214619;28;83963;-71
2023/07/06 06:33:04;;;;;;;11.95;6.07;;;24.30;98.40;;;;;;6232349;28;83838;-71
2023/07/06 06:36:07;;;;;;;9.80;5.90;;;24.30;98.20;;;;;;6220972;28;83302;-71
2023/07/06 06:39:10;;;;;;;10.10;5.00;;;24.30;97.80;;;;;;6226220;28;82943;-70
2023/07/06 06:42:13;;;;;;;8.00;4.68;;;24.30;97.50;;;;;;6221784;28;83792;-71
2023/07/06 06:45:15;;;;;;;6.88;4.38;;;24.30;97.30;;;;;;6219983;28;85182;-71
2023/07/06 06:48:17;;;;;;;5.95;3.83;;;24.30;97.00;;;;;;6210434;28;84022;-71
2023/07/06 06:51:19;;;;;;;6.10;3.60;;;24.30;96.80;;;;;;6221696;28;83228;-71
2023/07/06 06:54:23;;;;;;;7.80;4.22;;;24.30;96.70;;;;;;6224731;28;84031;-71
2023/07/06 06:57:25;;;;;;;4.63;3.53;;;24.30;96.60;;;;;;6230787;28;84171;-71
2023/07/06 07:00:27;;;;;;;4.60;3.80;;;24.30;96.30;;;;;;6216541;28;84095;-71
2023/07/06 07:03:29;;;;;;;6.10;4.00;;;24.30;96.10;;;;;;6212285;28;84342;-71
2023/07/06 07:06:31;;;;;;;5.63;3.65;;;24.40;99.90;;;;;;6223093;28;83554;-71
2023/07/06 07:09:35;;;;;;;7.13;4.15;;;24.50;99.90;;;;;;6223985;28;83994;-71
2023/07/06 07:12:38;;;;;;;4.65;3.65;;;24.60;99.90;;;;;;6225252;28;84071;-70
2023/07/06 07:15:40;;;;;;;5.07;3.60;;;24.70;98.80;;;;;;6216990;28;84848;-70
2023/07/06 07:18:43;;;;;;;6.85;3.60;;;24.70;97.40;;;;;;6227471;28;84511;-71
2023/07/06 07:21:45;;;;;;;4.03;3.33;;;24.70;96.60;;;;;;6220052;28;84106;-71
2023/07/06 07:24:48;;;;;;;4.68;3.25;;;24.70;96.00;;;;;;6229134;28;84069;-71
2023/07/06 07:27:51;;;;;;;4.22;3.38;;;24.70;95.40;;;;;;6222221;28;83998;-71
2023/07/06 07:30:57;;;;;;;4.38;3.30;;;24.70;95.10;;;;;;6230368;28;83986;-71
2023/07/06 07:33:59;;;;;;;4.95;3.40;;;24.70;94.70;;;;;;6228775;28;84334;-71
2023/07/06 07:37:01;;;;;;;4.40;3.45;;;24.70;94.40;;;;;;6220083;28;83297;-71
2023/07/06 07:40:06;;;;;;;5.78;3.80;;;24.70;93.90;;;;;;6230326;28;84375;-71
2023/07/06 07:43:08;;;;;;;6.05;3.92;;;24.60;93.70;;;;;;6219913;28;84125;-71
2023/07/06 07:46:12;;;;;;;5.40;3.92;;;24.60;93.30;;;;;;6220237;28;84824;-71
2023/07/06 07:49:14;;;;;;;3.90;3.50;;;24.60;93.00;;;;;;6214805;28;83990;-71
2023/07/06 07:52:19;;;;;;;4.38;3.67;;;24.60;93.00;;;;;;6218115;28;84039;-71
2023/07/06 07:55:22;;;;;;;6.22;4.10;;;24.60;92.90;;;;;;6226711;28;84300;-71
2023/07/06 07:58:26;;;;;;;4.43;3.78;;;24.50;92.80;;;;;;6223913;28;84321;-71
2023/07/06 08:01:28;;;;;;;4.20;3.35;;;24.50;92.90;;;;;;6236932;28;84333;-71
2023/07/06 08:04:31;;;;;;;4.03;3.63;;;24.50;92.90;;;;;;6226197;28;84064;-71
2023/07/06 08:07:33;;;;;;;3.88;3.47;;;24.50;92.90;;;;;;6218925;28;83294;-71
2023/07/06 08:10:39;;;;;;;4.50;3.63;;;24.50;92.90;;;;;;6224196;28;83905;-71
2023/07/06 08:13:41;;;;;;;4.45;3.60;;;24.50;93.00;;;;;;6219701;28;84011;-71
2023/07/06 08:16:43;;;;;;;4.70;3.60;;;24.40;93.10;;;;;;6227510;28;84903;-70
2023/07/06 08:19:46;;;;;;;4.40;3.65;;;24.40;93.10;;;;;;6215738;28;83992;-71
2023/07/06 08:22:48;;;;;;;5.05;3.55;;;24.40;93.20;;;;;;6224057;28;83960;-71
2023/07/06 08:25:52;;;;;;;4.43;3.65;;;24.40;93.40;;;;;;6233070;28;84054;-70
2023/07/06 08:28:54;;;;;;;4.72;3.80;;;24.40;93.60;;;;;;6235948;28;86369;-71
2023/07/06 08:31:56;;;;;;;4.55;3.78;;;24.40;93.80;;;;;;6233177;28;84368;-70
2023/07/06 08:34:58;;;;;;;5.28;3.53;;;24.40;94.00;;;;;;6219478;28;84064;-71
2023/07/06 08:38:04;;;;;;;4.35;3.38;;;24.50;94.00;;;;;;6226205;28;82494;-70
2023/07/06 08:41:30;;;;;;;4.03;3.30;;;24.40;93.60;;;;;;6235252;28;83943;-71
2023/07/06 08:44:32;;;;;;;3.20;2.97;;;24.50;93.70;;;;;;6217872;28;83373;-71
2023/07/06 08:47:34;;;;;;;4.13;3.47;;;24.50;93.00;;;;;;6222607;28;85544;-71
2023/07/06 08:50:37;;;;;;;4.00;3.22;;;24.50;93.20;;;;;;6216723;28;84464;-71
2023/07/06 08:53:42;;;;;;;4.00;3.35;;;24.40;93.00;;;;;;6222189;28;84098;-71
2023/07/06 08:56:47;;;;;;;3.90;2.97;;;24.40;93.00;;;;;;6215081;28;84205;-71
2023/07/06 08:59:51;;;;;;;3.80;3.10;;;24.40;93.00;;;;;;6221749;28;83259;-70
2023/07/06 09:02:56;;;;;;;4.00;3.20;;;24.40;92.90;;;;;;6226578;28;84044;-71
2023/07/06 09:05:58;;;;;;;4.45;3.47;;;24.40;93.10;;;;;;6225127;28;82874;-71
2023/07/06 09:09:02;;;;;;;5.15;3.20;;;24.40;93.30;;;;;;6222362;28;83728;-71
2023/07/06 09:12:13;;;;;;;4.90;3.17;;;24.40;93.60;;;;;;6217606;28;84010;-71
2023/07/06 09:15:17;;;;;;;3.35;3.00;;;24.40;93.70;;;;;;6224725;28;83995;-70
2023/07/06 09:18:19;;;;;;;3.15;2.88;;;24.40;94.00;;;;;;6219199;28;83910;-70
2023/07/06 09:21:22;;;;;;;10.13;9.18;;;24.50;94.20;;;;;;6226474;28;84081;-72
2023/07/06 09:24:27;;;;;;;5.82;5.25;;;24.50;95.10;;;;;;6224636;28;84181;-71
2023/07/06 09:27:32;;;;;;;5.45;4.72;;;24.50;94.90;;;;;;6233328;28;83973;-72
2023/07/06 09:30:38;;;;;;;4.35;3.95;;;24.50;94.80;;;;;;6230580;28;84362;-70
2023/07/06 09:33:44;;;;;;;4.45;3.80;;;24.60;94.70;;;;;;6213940;28;83923;-71
2023/07/06 09:36:48;;;;;;;4.85;4.10;;;24.60;94.30;;;;;;6233017;28;83993;-71
2023/07/06 09:40:01;;;;;;;5.05;3.75;;;24.60;93.90;;;;;;6224382;28;83472;-71
2023/07/06 09:43:17;;;;;;;4.90;3.40;;;24.50;93.50;;;;;;6223139;28;84117;-71
2023/07/06 09:46:19;;;;;;;4.20;3.40;;;24.60;93.50;;;;;;6212498;28;84049;-71
2023/07/06 09:49:22;;;;;;;3.72;3.38;;;24.50;93.50;;;;;;6209454;28;83904;-71
2023/07/06 09:52:26;;;;;;;3.72;3.25;;;24.60;93.70;;;;;;6221918;28;84060;-71
2023/07/06 09:55:30;;;;;;;5.28;3.20;;;24.60;93.80;;;;;;6223297;28;84098;-71
2023/07/06 09:58:35;;;;;;;4.80;3.38;;;24.50;93.80;;;;;;6216609;28;84071;-71
2023/07/06 10:01:44;;;;;;;4.50;3.30;;;24.50;93.90;;;;;;6222575;28;82864;-71
2023/07/06 10:04:52;;;;;;;3.40;3.10;;;24.50;93.90;;;;;;6216645;28;82935;-71
2023/07/06 10:08:00;;;;;;;4.18;3.08;;;24.50;93.80;;;;;;6235108;28;84190;-71
2023/07/06 10:11:12;;;;;;;3.78;3.10;;;24.50;93.80;;;;;;6229637;28;82377;-71
2023/07/06 10:14:26;;;;;;;3.90;3.05;;;24.50;94.00;;;;;;6221230;28;84073;-71
2023/07/06 10:17:35;;;;;;;3.50;2.83;;;24.40;94.20;;;;;;6216416;28;84334;-71
2023/07/06 10:20:43;;;;;;;5.47;3.00;;;24.50;94.20;;;;;;6223339;28;84000;-71
2023/07/06 10:23:54;;;;;;;5.38;3.53;;;24.50;94.90;;;;;;6211856;28;83375;-70
2023/07/06 10:27:01;;;;;;;5.43;3.10;;;24.50;95.20;;;;;;6223191;28;84095;-71
2023/07/06 10:30:08;;;;;;;3.42;2.92;;;24.50;95.40;;;;;;6214478;28;84065;-70
2023/07/06 10:33:15;;;;;;;4.13;2.65;;;24.50;95.50;;;;;;6223771;28;84025;-70
2023/07/06 10:36:17;;;;;;;4.15;2.90;;;24.50;95.60;;;;;;6212134;28;84814;-71
2023/07/06 10:39:53;;;;;;;4.50;2.70;;;24.50;95.80;;;;;;6223130;28;84350;-71
2023/07/06 10:43:20;;;;;;;3.88;2.70;;;24.50;95.90;;;;;;6211503;28;83302;-71
2023/07/06 10:46:33;;;;;;;4.18;3.20;;;24.40;96.10;;;;;;6225103;28;84032;-71
2023/07/06 10:50:04;;;;;;;7.45;3.13;;;24.40;96.20;;;;;;6233359;28;84399;-72
2023/07/06 10:53:21;;;;;;;3.88;2.97;;;24.40;96.20;;;;;;6212949;28;85165;-71
2023/07/06 10:56:28;;;;;;;3.53;3.00;;;24.40;96.00;;;;;;6223273;28;83318;-72
2023/07/06 10:59:37;;;;;;;3.05;2.33;;;24.40;95.70;;;;;;6226568;28;84078;-71
2023/07/06 11:02:43;;;;;;;3.35;3.05;;;24.40;95.60;;;;;;6219242;28;84193;-71
2023/07/06 11:05:55;;;;;;;3.97;3.08;;;24.40;95.60;;;;;;6224401;28;86526;-71
2023/07/06 11:09:14;;;;;;;4.22;2.60;;;24.50;95.60;;;;;;6212071;28;85065;-71
2023/07/06 11:12:19;;;;;;;3.05;2.53;;;24.50;95.50;;;;;;6217788;28;84593;-71
2023/07/06 11:15:25;;;;;;;3.00;2.70;;;24.40;95.40;;;;;;6229103;28;83280;-71
2023/07/06 11:18:36;;;;;;;3.20;2.80;;;24.50;95.50;;;;;;6223419;28;84080;-71
2023/07/06 11:21:43;;;;;;;3.20;2.80;;;24.50;95.60;;;;;;6221874;28;84183;-72
2023/07/06 11:24:48;;;;;;;3.10;2.80;;;24.50;95.50;;;;;;6231558;28;85141;-71
2023/07/06 11:27:56;;;;;;;2.95;2.65;;;24.40;95.40;;;;;;6211985;28;84089;-71
2023/07/06 11:31:08;;;;;;;3.00;2.70;;;24.40;95.40;;;;;;6217614;28;84121;-70
2023/07/06 11:34:19;;;;;;;3.88;3.05;;;24.40;95.40;;;;;;6232911;28;83797;-71
2023/07/06 11:37:29;;;;;;;3.38;2.83;;;24.40;95.40;;;;;;6223921;28;84346;-70
2023/07/06 11:40:44;;;;;;;3.35;2.63;;;24.40;95.40;;;;;;6216227;28;83530;-71
2023/07/06 11:44:07;;;;;;;3.10;2.80;;;24.40;95.20;;;;;;6219348;28;82822;-70
2023/07/06 11:47:34;;;;;;;2.88;2.63;;;24.40;95.10;;;;;;6233823;28;82199;-71
2023/07/06 11:50:39;;;;;;;3.28;2.85;;;24.40;94.90;;;;;;6220945;28;84209;-71
2023/07/06 11:53:54;;;;;;;3.00;2.70;;;24.50;95.00;;;;;;6220559;28;83989;-71
2023/07/06 11:57:23;;;;;;;3.13;2.42;;;24.50;95.00;;;;;;6220757;28;84896;-70
2023/07/06 12:00:47;;;;;;;4.68;3.30;;;24.50;95.00;;;;;;6217780;28;82646;-70
2023/07/06 12:03:49;;;;;;;2.83;2.40;;;24.50;95.00;;;;;;6217554;28;84043;-71
2023/07/06 12:06:54;;;;;;;3.35;2.83;;;24.40;95.10;;;;;;6222327;28;84015;-71
2023/07/06 12:09:56;;;;;;;2.75;2.38;;;24.40;95.10;;;;;;6209869;28;84093;-71
2023/07/06 12:12:58;;;;;;;3.30;2.50;;;24.40;95.00;;;;;;6213164;28;84078;-70
2023/07/06 12:16:07;;;;;;;2.75;2.35;;;24.40;95.20;;;;;;6213982;28;84059;-70
2023/07/06 12:19:12;;;;;;;3.00;2.67;;;24.40;95.20;;;;;;6214468;28;83487;-71
2023/07/06 12:22:17;;;;;;;3.72;2.63;;;24.40;95.10;;;;;;6224364;28;84056;-69
2023/07/06 12:25:20;;;;;;;4.13;3.03;;;24.40;95.20;;;;;;6225609;28;83997;-68
2023/07/06 12:28:25;;;;;;;3.33;2.78;;;24.40;95.20;;;;;;6221536;28;85059;-69
2023/07/06 12:31:28;;;;;;;2.95;2.65;;;24.40;95.10;;;;;;6220401;28;85634;-68
2023/07/06 12:34:32;;;;;;;3.20;2.70;;;24.40;94.80;;;;;;6222087;28;83199;-70
2023/07/06 12:37:35;;;;;;;3.63;2.60;;;24.50;94.70;;;;;;6227406;28;84037;-69
2023/07/06 12:40:38;;;;;;;2.80;2.50;;;24.50;94.60;;;;;;6215841;28;82817;-69
2023/07/06 12:43:40;;;;;;;2.92;2.60;;;24.50;94.70;;;;;;6234811;28;84030;-69
2023/07/06 12:46:50;;;;;;;3.05;2.75;;;24.50;94.70;;;;;;6235510;28;84026;-69
2023/07/06 12:49:53;;;;;;;2.53;2.28;;;24.40;94.70;;;;;;6223771;28;83506;-69
2023/07/06 12:53:05;;;;;;;4.93;2.97;;;24.40;94.70;;;;;;6222557;28;83725;-69
2023/07/06 12:56:13;;;;;;;2.70;2.50;;;24.50;94.90;;;;;;6225438;28;84205;-69
2023/07/06 12:59:21;;;;;;;2.55;2.35;;;24.40;94.90;;;;;;6223731;28;85045;-69
2023/07/06 13:02:24;;;;;;;2.63;2.40;;;24.50;94.90;;;;;;6226137;28;84222;-69
2023/07/06 13:05:29;;;;;;;2.90;2.45;;;24.40;94.80;;;;;;6224943;28;84053;-69
2023/07/06 13:08:35;;;;;;;3.03;2.65;;;24.40;94.80;;;;;;6221003;28;84364;-69
2023/07/06 13:11:38;;;;;;;2.78;2.50;;;24.40;94.80;;;;;;6230773;28;84995;-69
2023/07/06 13:14:41;;;;;;;3.20;2.65;;;24.50;94.80;;;;;;6224890;28;84367;-69
2023/07/06 13:17:49;;;;;;;2.60;2.40;;;24.50;95.00;;;;;;6231919;28;82928;-69
2023/07/06 13:20:53;;;;;;;2.97;2.60;;;24.50;94.90;;;;;;6229180;28;83314;-69
2023/07/06 13:23:58;;;;;;;3.28;2.72;;;24.50;94.80;;;;;;6219377;28;84052;-69
2023/07/06 13:27:01;;;;;;;5.65;2.85;;;24.50;95.00;;;;;;6229844;28;83983;-69
2023/07/06 13:30:06;;;;;;;2.85;2.35;;;24.50;95.00;;;;;;6224475;28;84223;-69
2023/07/06 13:33:12;;;;;;;4.53;2.75;;;24.50;95.20;;;;;;6229781;28;83992;-69
2023/07/06 13:36:16;;;;;;;5.68;2.90;;;24.50;95.40;;;;;;6213709;28;83820;-66
2023/07/06 13:39:19;;;;;;;8.23;3.13;;;24.50;95.20;;;;;;6238123;28;83922;-70
2023/07/06 13:42:22;;;;;;;9.95;3.30;;;24.50;95.60;;;;;;6230760;28;84037;-70
2023/07/06 13:45:31;;;;;;;7.60;3.00;;;24.50;95.80;;;;;;6230045;28;84540;-69
2023/07/06 13:48:33;;;;;;;7.88;3.00;;;24.50;96.50;;;;;;6217037;28;82932;-69
2023/07/06 13:51:36;;;;;;;7.80;3.53;;;24.50;96.10;;;;;;6215980;28;83320;-69
2023/07/06 13:54:39;;;;;;;7.90;3.22;;;24.50;95.90;;;;;;6233599;28;82911;-69
2023/07/06 13:57:41;;;;;;;7.10;3.58;;;24.50;95.90;;;;;;6226296;28;83031;-69
2023/07/06 14:00:46;;;;;;;11.48;3.30;;;24.50;95.80;;;;;;6229230;28;83923;-70
2023/07/06 14:03:48;;;;;;;7.70;3.30;;;24.50;95.90;;;;;;6230139;28;84073;-68
2023/07/06 14:06:50;;;;;;;4.97;2.80;;;24.50;96.60;;;;;;6233916;28;84342;-69
2023/07/06 14:09:54;;;;;;;6.88;3.30;;;24.50;96.20;;;;;;6222173;28;83282;-68
2023/07/06 14:12:56;;;;;;;6.75;3.15;;;24.50;96.00;;;;;;6229165;28;82955;-69
2023/07/06 14:15:58;;;;;;;4.13;3.08;;;24.50;95.80;;;;;;6235005;28;84089;-68
2023/07/06 14:19:00;;;;;;;5.38;2.83;;;24.50;95.60;;;;;;6230755;28;84064;-68
2023/07/06 14:22:03;;;;;;;5.57;3.05;;;24.50;95.40;;;;;;6229769;28;83608;-69
2023/07/06 14:25:16;;;;;;;7.30;3.08;;;24.50;95.40;;;;;;6232290;28;84348;-69
2023/07/06 14:28:18;;;;;;;5.95;3.05;;;24.50;95.20;;;;;;6224440;28;84147;-69
2023/07/06 14:31:21;;;;;;;5.05;3.30;;;24.50;95.20;;;;;;6211906;28;83958;-68
2023/07/06 14:34:24;;;;;;;5.53;2.88;;;24.50;95.10;;;;;;6210427;28;84027;-71
2023/07/06 14:37:26;;;;;;;5.75;3.33;;;24.50;95.10;;;;;;6212037;28;83955;-72
2023/07/06 14:40:29;;;;;;;4.60;2.92;;;24.50;95.10;;;;;;6226972;28;84059;-71
2023/07/06 14:43:31;;;;;;;7.15;2.97;;;24.50;95.30;;;;;;6231543;28;84333;-71
2023/07/06 14:46:35;;;;;;;6.30;3.13;;;24.50;95.20;;;;;;6223351;28;84015;-71
2023/07/06 14:49:37;;;;;;;4.97;3.20;;;24.50;95.10;;;;;;6210921;28;83429;-72
2023/07/06 14:52:39;;;;;;;7.05;3.03;;;24.50;95.00;;;;;;6230530;28;83323;-72
2023/07/06 14:55:46;;;;;;;3.45;2.70;;;24.50;95.00;;;;;;6223311;28;84311;-71
2023/07/06 14:58:48;;;;;;;5.65;2.97;;;24.50;95.00;;;;;;6209989;28;84285;-71
2023/07/06 15:01:50;;;;;;;3.80;2.90;;;24.50;94.90;;;;;;6227801;28;83835;-71
2023/07/06 15:04:53;;;;;;;4.82;2.60;;;24.50;94.90;;;;;;6220657;28;84091;-71
2023/07/06 15:07:55;;;;;;;5.78;2.83;;;24.50;94.80;;;;;;6234745;28;84296;-71
2023/07/06 15:10:58;;;;;;;4.72;2.92;;;24.50;94.80;;;;;;6233138;28;84000;-72
2023/07/06 15:14:00;;;;;;;6.20;3.03;;;24.50;94.80;;;;;;6233342;28;84128;-68
2023/07/06 15:17:02;;;;;;;5.68;2.90;;;24.50;94.80;;;;;;6233949;28;84029;-68
2023/07/06 15:20:06;;;;;;;4.10;2.50;;;24.60;94.80;;;;;;6230236;28;84017;-69
2023/07/06 15:23:07;;;;;;;6.05;3.15;;;24.50;94.80;;;;;;6223515;28;83325;-69
2023/07/06 15:26:11;;;;;;;4.07;2.97;;;24.50;94.70;;;;;;6216178;28;84072;-68
2023/07/06 15:29:13;;;;;;;5.50;3.00;;;24.50;95.10;;;;;;6209682;28;84053;-68
2023/07/06 15:32:15;;;;;;;4.93;3.20;;;24.50;94.60;;;;;;6220771;28;85348;-71
2023/07/06 15:35:18;;;;;;;4.93;3.03;;;24.50;94.50;;;;;;6219118;28;84098;-71
2023/07/06 15:38:20;;;;;;;5.00;2.95;;;24.50;94.50;;;;;;6214961;28;84045;-71
2023/07/06 15:41:23;;;;;;;3.88;2.80;;;24.50;94.40;;;;;;6218044;28;86321;-71
2023/07/06 15:44:26;;;;;;;4.88;2.90;;;24.50;94.40;;;;;;6216950;28;84064;-71
2023/07/06 15:47:28;;;;;;;3.53;2.83;;;24.50;94.40;;;;;;6227772;28;84143;-71
2023/07/06 15:50:30;;;;;;;5.20;3.00;;;24.50;94.40;;;;;;6216639;28;84101;-71
2023/07/06 15:53:32;;;;;;;4.97;3.10;;;24.50;94.40;;;;;;6233294;28;83596;-71
2023/07/06 15:56:36;;;;;;;3.35;2.88;;;24.50;94.40;;;;;;6222409;28;83980;-71
2023/07/06 15:59:38;;;;;;;3.17;2.67;;;24.50;94.40;;;;;;6215286;28;84084;-68
2023/07/06 16:02:41;;;;;;;4.18;2.72;;;24.50;94.40;;;;;;6214892;28;85184;-68